Time;durP1;ratioP1;P1;durP2;ratioP2;P2;SDS_P1;SDS_P2;PMS_P1;PMS_P2;Temp;Humidity;BMP_temperature;BMP_pressure;BME280_temperature;BME280_humidity;BME280_pressure;Samples;Min_cycle;Max_cycle;Signal;HPM_P1;HPM_P2
2022/06/29 00:00:31;;;;;;;6.80;3.25;;;;;;;;;;5105207;28;20039;-72
2022/06/29 00:02:57;;;;;;;6.00;3.20;;;;;;;;;;5111248;28;20067;-72
2022/06/29 00:05:24;;;;;;;6.43;3.38;;;;;;;;;;5114185;28;20567;-71
2022/06/29 00:07:51;;;;;;;11.15;3.60;;;;;;;;;;5096117;28;20457;-71
2022/06/29 00:10:17;;;;;;;7.70;3.45;;;;;;;;;;5097899;28;20035;-71
2022/06/29 00:12:44;;;;;;;7.80;3.55;;;;;;;;;;5112912;28;20044;-71
2022/06/29 00:15:10;;;;;;;8.10;3.30;;;;;;;;;;5113760;28;20039;-71
2022/06/29 00:17:36;;;;;;;8.57;3.17;;;;;;;;;;5114656;28;20040;-72
2022/06/29 00:20:04;;;;;;;7.90;3.15;;;;;;;;;;5110136;28;20541;-71
2022/06/29 00:22:31;;;;;;;10.15;3.40;;;;;;;;;;5113178;28;20112;-71
2022/06/29 00:24:57;;;;;;;6.50;3.20;;;;;;;;;;5113021;28;20055;-71
2022/06/29 00:27:23;;;;;;;9.23;3.20;;;;;;;;;;5106382;28;20378;-71
2022/06/29 00:29:49;;;;;;;6.82;3.17;;;;;;;;;;5085608;28;20040;-72
2022/06/29 00:32:15;;;;;;;7.10;3.30;;;;;;;;;;5103785;28;20070;-72
2022/06/29 00:34:41;;;;;;;9.02;3.25;;;;;;;;;;5104583;28;20047;-72
2022/06/29 00:37:08;;;;;;;7.38;3.28;;;;;;;;;;5105292;28;20038;-72
2022/06/29 00:39:34;;;;;;;8.23;3.63;;;;;;;;;;5104954;28;20054;-72
2022/06/29 00:42:00;;;;;;;6.60;3.42;;;;;;;;;;5103394;28;20042;-73
2022/06/29 00:44:26;;;;;;;6.88;3.40;;;;;;;;;;5110868;28;20048;-72
2022/06/29 00:46:57;;;;;;;6.95;3.65;;;;;;;;;;5106827;28;20130;-71
2022/06/29 00:49:24;;;;;;;9.07;4.07;;;;;;;;;;5103350;28;20048;-72
2022/06/29 00:52:09;;;;;;;7.57;3.90;;;;;;;;;;5107121;28;20550;-72
2022/06/29 00:54:36;;;;;;;7.57;3.80;;;;;;;;;;5103011;28;20489;-72
2022/06/29 00:57:03;;;;;;;8.35;3.80;;;;;;;;;;5105727;28;20515;-72
2022/06/29 00:59:30;;;;;;;8.90;3.90;;;;;;;;;;5114488;28;20036;-72
2022/06/29 01:01:56;;;;;;;10.20;4.45;;;;;;;;;;5110883;28;20040;-71
2022/06/29 01:04:22;;;;;;;8.10;4.05;;;;;;;;;;5113075;28;20036;-73
2022/06/29 01:06:48;;;;;;;9.70;4.60;;;;;;;;;;5106749;28;20406;-72
2022/06/29 01:09:15;;;;;;;11.30;4.57;;;;;;;;;;5113838;28;20040;-72
2022/06/29 01:11:41;;;;;;;7.53;4.50;;;;;;;;;;5094042;28;20051;-72
2022/06/29 01:14:07;;;;;;;8.52;4.38;;;;;;;;;;5114636;28;20097;-72
2022/06/29 01:16:33;;;;;;;8.48;4.28;;;;;;;;;;5109176;28;20096;-73
2022/06/29 01:18:59;;;;;;;8.38;4.50;;;;;;;;;;5113219;28;20048;-73
2022/06/29 01:21:26;;;;;;;7.72;4.50;;;;;;;;;;5111227;28;20035;-72
2022/06/29 01:23:52;;;;;;;8.52;4.93;;;;;;;;;;5111731;28;20043;-72
2022/06/29 01:26:18;;;;;;;9.95;5.07;;;;;;;;;;5109974;28;20048;-72
2022/06/29 01:28:46;;;;;;;9.65;4.88;;;;;;;;;;5112612;28;20447;-72
2022/06/29 01:31:14;;;;;;;8.55;4.97;;;;;;;;;;5113489;28;20048;-72
2022/06/29 01:33:39;;;;;;;9.40;5.07;;;;;;;;;;5113441;28;20044;-72
2022/06/29 01:36:06;;;;;;;7.30;4.75;;;;;;;;;;5105938;28;20109;-72
2022/06/29 01:38:32;;;;;;;9.70;5.25;;;;;;;;;;5104976;28;20108;-71
2022/06/29 01:40:58;;;;;;;7.63;4.90;;;;;;;;;;5111079;28;20498;-72
2022/06/29 01:43:24;;;;;;;9.23;5.00;;;;;;;;;;5112183;28;20039;-72
2022/06/29 01:45:50;;;;;;;10.10;5.32;;;;;;;;;;5111504;28;20084;-73
2022/06/29 01:48:16;;;;;;;11.45;5.05;;;;;;;;;;5113937;28;20113;-73
2022/06/29 01:50:42;;;;;;;10.25;5.78;;;;;;;;;;5112443;28;20147;-72
2022/06/29 01:53:08;;;;;;;10.95;5.30;;;;;;;;;;5111889;28;20118;-73
2022/06/29 01:55:34;;;;;;;7.78;5.07;;;;;;;;;;5112055;28;20494;-72
2022/06/29 01:58:00;;;;;;;10.85;5.50;;;;;;;;;;5111984;28;20123;-72
2022/06/29 02:00:26;;;;;;;11.68;5.68;;;;;;;;;;5109939;28;20100;-72
2022/06/29 02:02:52;;;;;;;13.55;6.10;;;;;;;;;;5110117;28;20386;-72
2022/06/29 02:05:21;;;;;;;8.73;5.80;;;;;;;;;;5112644;28;20120;-73
2022/06/29 02:07:47;;;;;;;8.05;5.70;;;;;;;;;;5111310;28;20148;-73
2022/06/29 02:10:13;;;;;;;9.65;5.60;;;;;;;;;;5112233;28;20040;-72
2022/06/29 02:12:39;;;;;;;10.45;5.65;;;;;;;;;;5111575;28;20047;-73
2022/06/29 02:15:07;;;;;;;10.07;6.18;;;;;;;;;;5112142;28;20050;-73
2022/06/29 02:17:33;;;;;;;9.55;5.72;;;;;;;;;;5111419;28;20075;-73
2022/06/29 02:19:59;;;;;;;9.77;6.15;;;;;;;;;;5109481;28;20409;-73
2022/06/29 02:22:25;;;;;;;13.60;5.65;;;;;;;;;;5110760;28;20481;-73
2022/06/29 02:24:51;;;;;;;11.60;5.60;;;;;;;;;;5112139;28;20096;-72
2022/06/29 02:27:17;;;;;;;9.10;5.40;;;;;;;;;;5108592;28;20040;-73
2022/06/29 02:29:43;;;;;;;8.70;6.20;;;;;;;;;;5111755;28;20502;-72
2022/06/29 02:34:54;;;;;;;8.60;5.60;;;;;;;;;;5112779;28;20048;-72
2022/06/29 02:37:20;;;;;;;9.70;5.68;;;;;;;;;;5111753;28;20091;-72
2022/06/29 02:39:46;;;;;;;7.75;5.80;;;;;;;;;;5109638;28;20055;-73
2022/06/29 02:42:13;;;;;;;8.73;6.15;;;;;;;;;;5106160;28;20039;-72
2022/06/29 02:44:39;;;;;;;7.47;5.47;;;;;;;;;;5111342;28;20536;-72
2022/06/29 02:47:06;;;;;;;9.90;5.32;;;;;;;;;;5104770;28;20039;-73
2022/06/29 02:49:33;;;;;;;10.75;6.22;;;;;;;;;;5101608;28;20080;-72
2022/06/29 02:51:59;;;;;;;9.48;6.03;;;;;;;;;;5103995;28;20050;-72
2022/06/29 02:54:25;;;;;;;8.73;5.80;;;;;;;;;;5112568;28;20043;-73
2022/06/29 02:56:51;;;;;;;9.70;5.53;;;;;;;;;;5111542;28;20036;-73
2022/06/29 02:59:17;;;;;;;8.60;5.72;;;;;;;;;;5112365;28;20047;-73
2022/06/29 03:01:43;;;;;;;8.27;5.60;;;;;;;;;;5109496;28;20263;-73
2022/06/29 03:04:09;;;;;;;9.68;6.45;;;;;;;;;;5112852;28;20086;-73
2022/06/29 03:06:35;;;;;;;8.98;6.32;;;;;;;;;;5111397;28;20063;-73
2022/06/29 03:09:01;;;;;;;8.60;5.95;;;;;;;;;;5111243;28;20046;-73
2022/06/29 03:11:27;;;;;;;9.43;6.82;;;;;;;;;;5106988;28;20565;-72
2022/06/29 03:13:53;;;;;;;8.10;6.47;;;;;;;;;;5110970;28;20123;-73
2022/06/29 03:16:20;;;;;;;11.45;7.03;;;;;;;;;;5111611;28;20051;-72
2022/06/29 03:18:45;;;;;;;7.50;5.20;;;;;;;;;;5108883;28;20032;-73
2022/06/29 03:21:12;;;;;;;8.75;6.05;;;;;;;;;;5088044;28;20055;-72
2022/06/29 03:23:38;;;;;;;10.75;7.18;;;;;;;;;;5100932;28;20494;-72
2022/06/29 03:26:04;;;;;;;9.68;6.88;;;;;;;;;;5111709;28;20044;-73
2022/06/29 03:28:30;;;;;;;13.07;6.43;;;;;;;;;;5108554;28;20047;-72
2022/06/29 03:30:56;;;;;;;12.02;7.05;;;;;;;;;;5112387;28;20044;-72
2022/06/29 03:33:22;;;;;;;9.68;6.90;;;;;;;;;;5111000;28;20534;-73
2022/06/29 03:35:48;;;;;;;11.20;6.47;;;;;;;;;;5111568;28;20044;-71
2022/06/29 03:38:14;;;;;;;7.88;6.38;;;;;;;;;;5110789;28;20065;-72
2022/06/29 03:40:40;;;;;;;12.45;6.63;;;;;;;;;;5101397;28;20131;-72
2022/06/29 03:43:06;;;;;;;8.57;6.90;;;;;;;;;;5090469;28;20502;-72
2022/06/29 03:45:32;;;;;;;11.85;7.20;;;;;;;;;;5094584;28;20043;-72
2022/06/29 03:47:58;;;;;;;9.45;6.57;;;;;;;;;;5110078;28;20059;-73
2022/06/29 03:50:24;;;;;;;8.35;6.45;;;;;;;;;;5112017;28;20122;-73
2022/06/29 03:52:50;;;;;;;9.07;6.78;;;;;;;;;;5095859;28;20036;-72
2022/06/29 03:55:17;;;;;;;15.40;7.45;;;;;;;;;;5105719;28;20051;-73
2022/06/29 03:57:43;;;;;;;12.73;7.07;;;;;;;;;;5113782;28;20156;-72
2022/06/29 04:00:12;;;;;;;8.90;7.20;;;;;;;;;;5103161;28;20083;-71
2022/06/29 04:02:38;;;;;;;11.13;7.05;;;;;;;;;;5110595;28;20393;-72
2022/06/29 04:05:05;;;;;;;9.55;7.35;;;;;;;;;;5115704;28;20461;-72
2022/06/29 04:07:31;;;;;;;10.77;7.55;;;;;;;;;;5112826;28;20493;-72
2022/06/29 04:10:00;;;;;;;10.88;7.32;;;;;;;;;;5116050;28;20089;-73
2022/06/29 04:12:31;;;;;;;9.02;6.97;;;;;;;;;;5112696;28;20046;-71
2022/06/29 04:14:57;;;;;;;13.02;7.32;;;;;;;;;;5114903;28;20396;-71
2022/06/29 04:17:23;;;;;;;11.13;6.93;;;;;;;;;;5077755;28;20036;-72
2022/06/29 04:19:51;;;;;;;10.38;7.25;;;;;;;;;;5112117;28;20119;-72
2022/06/29 04:22:17;;;;;;;10.63;6.75;;;;;;;;;;5114485;28;20040;-71
2022/06/29 04:24:43;;;;;;;11.90;6.93;;;;;;;;;;5112504;28;20031;-73
2022/06/29 04:27:09;;;;;;;10.60;7.00;;;;;;;;;;5094283;28;20119;-72
2022/06/29 04:29:35;;;;;;;8.77;7.20;;;;;;;;;;5112661;28;20047;-73
2022/06/29 04:32:01;;;;;;;11.18;6.88;;;;;;;;;;5112603;28;20043;-72
2022/06/29 04:34:27;;;;;;;8.90;6.82;;;;;;;;;;5114943;28;20401;-73
2022/06/29 04:36:53;;;;;;;8.68;6.50;;;;;;;;;;5114015;28;20058;-72
2022/06/29 04:39:20;;;;;;;11.23;6.43;;;;;;;;;;5114701;28;20054;-73
2022/06/29 04:41:47;;;;;;;9.88;7.03;;;;;;;;;;5091900;28;20042;-72
2022/06/29 04:44:13;;;;;;;8.80;6.70;;;;;;;;;;5114709;28;20054;-73
2022/06/29 04:46:39;;;;;;;8.23;6.30;;;;;;;;;;5113477;28;20040;-72
2022/06/29 04:49:05;;;;;;;8.30;6.25;;;;;;;;;;5113937;28;20520;-72
2022/06/29 04:51:32;;;;;;;9.35;6.40;;;;;;;;;;5111973;28;20039;-72
2022/06/29 04:53:58;;;;;;;8.02;6.32;;;;;;;;;;5115096;28;20486;-73
2022/06/29 04:56:26;;;;;;;7.38;6.25;;;;;;;;;;5113873;28;20100;-72
2022/06/29 04:58:53;;;;;;;8.48;6.40;;;;;;;;;;5112346;28;20390;-72
2022/06/29 05:01:21;;;;;;;8.32;6.45;;;;;;;;;;5109077;28;20052;-72
2022/06/29 05:03:47;;;;;;;10.68;6.43;;;;;;;;;;5111004;28;20039;-71
2022/06/29 05:06:13;;;;;;;11.45;6.25;;;;;;;;;;5113947;28;20043;-72
2022/06/29 05:08:40;;;;;;;8.43;6.15;;;;;;;;;;5114849;28;20043;-72
2022/06/29 05:11:06;;;;;;;8.25;6.18;;;;;;;;;;5112487;28;20047;-73
2022/06/29 05:13:32;;;;;;;7.78;6.30;;;;;;;;;;5113240;28;20050;-72
2022/06/29 05:15:58;;;;;;;9.50;6.72;;;;;;;;;;5098790;28;20558;-72
2022/06/29 05:18:24;;;;;;;9.20;6.43;;;;;;;;;;5094764;28;20073;-72
2022/06/29 05:20:50;;;;;;;9.07;6.40;;;;;;;;;;5093336;28;20048;-72
2022/06/29 05:23:16;;;;;;;8.50;6.35;;;;;;;;;;5114569;28;20474;-71
2022/06/29 05:25:42;;;;;;;8.48;5.85;;;;;;;;;;5112481;28;20036;-72
2022/06/29 05:28:11;;;;;;;10.95;6.45;;;;;;;;;;5113567;28;20051;-72
2022/06/29 05:30:37;;;;;;;9.18;6.22;;;;;;;;;;5112716;28;20043;-73
2022/06/29 05:33:03;;;;;;;8.00;5.88;;;;;;;;;;5111520;28;20500;-72
2022/06/29 05:35:33;;;;;;;9.02;5.40;;;;;;;;;;5113762;28;20050;-72
2022/06/29 05:37:59;;;;;;;9.68;5.72;;;;;;;;;;5065127;28;20044;-73
2022/06/29 05:40:25;;;;;;;8.10;5.45;;;;;;;;;;5108489;28;20119;-72
2022/06/29 05:42:52;;;;;;;9.95;5.30;;;;;;;;;;5110596;28;20051;-72
2022/06/29 05:45:18;;;;;;;7.03;5.00;;;;;;;;;;5095341;28;20043;-72
2022/06/29 05:47:44;;;;;;;6.55;4.60;;;;;;;;;;5067181;28;20042;-73
2022/06/29 05:50:10;;;;;;;11.05;5.05;;;;;;;;;;5114224;28;20126;-73
2022/06/29 05:52:39;;;;;;;7.68;4.75;;;;;;;;;;5094490;28;20047;-72
2022/06/29 05:55:05;;;;;;;7.82;4.68;;;;;;;;;;5113933;28;20043;-72
2022/06/29 05:57:33;;;;;;;7.18;4.47;;;;;;;;;;5111498;28;20126;-72
2022/06/29 06:00:01;;;;;;;8.02;4.20;;;;;;;;;;5113293;28;20045;-73
2022/06/29 06:02:27;;;;;;;8.73;4.35;;;;;;;;;;5109385;28;20485;-73
2022/06/29 06:04:53;;;;;;;7.50;3.67;;;;;;;;;;5111255;28;20046;-73
2022/06/29 06:07:19;;;;;;;5.85;3.42;;;;;;;;;;5105838;28;20047;-73
2022/06/29 06:09:45;;;;;;;9.07;3.30;;;;;;;;;;5100763;28;20382;-72
2022/06/29 06:12:11;;;;;;;6.78;3.25;;;;;;;;;;5111854;28;20043;-72
2022/06/29 06:14:37;;;;;;;6.05;3.40;;;;;;;;;;5111766;28;20058;-72
2022/06/29 06:17:04;;;;;;;7.35;3.15;;;;;;;;;;5113035;28;20043;-72
2022/06/29 06:19:30;;;;;;;8.57;2.92;;;;;;;;;;5109750;28;20044;-73
2022/06/29 06:21:56;;;;;;;8.68;3.13;;;;;;;;;;5104274;28;20501;-72
2022/06/29 06:24:22;;;;;;;6.18;2.95;;;;;;;;;;5111810;28;20040;-72
2022/06/29 06:26:48;;;;;;;6.68;3.05;;;;;;;;;;5109237;28;20122;-72
2022/06/29 06:29:14;;;;;;;6.85;2.90;;;;;;;;;;5109830;28;20051;-72
2022/06/29 06:31:40;;;;;;;8.15;2.75;;;;;;;;;;5093051;28;20098;-71
2022/06/29 06:34:06;;;;;;;9.10;3.17;;;;;;;;;;5091905;28;20096;-72
2022/06/29 06:36:32;;;;;;;6.68;2.80;;;;;;;;;;5112134;28;20044;-72
2022/06/29 06:38:58;;;;;;;6.65;2.75;;;;;;;;;;5109914;28;20039;-71
2022/06/29 06:41:27;;;;;;;5.75;2.63;;;;;;;;;;5111721;28;20549;-71
2022/06/29 06:43:54;;;;;;;6.90;2.72;;;;;;;;;;5108838;28;20420;-72
2022/06/29 06:46:20;;;;;;;5.22;2.60;;;;;;;;;;5093681;28;20044;-72
2022/06/29 06:48:48;;;;;;;5.88;2.30;;;;;;;;;;5111431;28;20048;-71
2022/06/29 06:51:15;;;;;;;5.78;2.38;;;;;;;;;;5110267;28;20050;-71
2022/06/29 06:53:41;;;;;;;7.40;2.30;;;;;;;;;;5111510;28;20477;-72
2022/06/29 06:56:07;;;;;;;6.32;2.10;;;;;;;;;;5111903;28;20046;-73
2022/06/29 06:58:35;;;;;;;5.97;2.10;;;;;;;;;;5112418;28;20043;-73
2022/06/29 07:01:02;;;;;;;6.40;2.30;;;;;;;;;;5112429;28;20044;-71
2022/06/29 07:03:31;;;;;;;5.20;1.90;;;;;;;;;;5094274;28;20043;-72
2022/06/29 07:05:57;;;;;;;5.80;1.90;;;;;;;;;;5111830;28;20052;-71
2022/06/29 07:08:23;;;;;;;5.03;2.05;;;;;;;;;;5110732;28;20047;-73
2022/06/29 07:10:49;;;;;;;6.18;2.10;;;;;;;;;;5093159;28;20044;-72
2022/06/29 07:13:15;;;;;;;6.28;1.85;;;;;;;;;;5111341;28;20493;-71
2022/06/29 07:15:41;;;;;;;5.07;1.90;;;;;;;;;;5070572;28;20076;-73
2022/06/29 07:18:07;;;;;;;4.68;1.80;;;;;;;;;;5074892;28;20097;-73
2022/06/29 07:20:33;;;;;;;7.72;1.98;;;;;;;;;;5074343;28;20040;-72
2022/06/29 07:22:59;;;;;;;5.18;2.00;;;;;;;;;;5092763;28;20036;-73
2022/06/29 07:25:25;;;;;;;4.75;1.95;;;;;;;;;;5101642;28;20040;-72
2022/06/29 07:27:51;;;;;;;6.40;1.90;;;;;;;;;;5104118;28;20048;-73
2022/06/29 07:30:17;;;;;;;5.18;1.88;;;;;;;;;;5096223;28;20047;-71
2022/06/29 07:32:43;;;;;;;3.85;1.70;;;;;;;;;;5078274;28;20100;-72
2022/06/29 07:35:09;;;;;;;5.38;1.83;;;;;;;;;;5097151;28;20474;-71
2022/06/29 07:37:35;;;;;;;5.30;2.05;;;;;;;;;;5113739;28;20048;-71
2022/06/29 07:40:01;;;;;;;4.32;1.90;;;;;;;;;;5114180;28;20035;-73
2022/06/29 07:42:27;;;;;;;5.55;1.95;;;;;;;;;;5113600;28;20058;-72
2022/06/29 07:44:53;;;;;;;5.78;1.60;;;;;;;;;;5106768;28;20052;-73
2022/06/29 07:47:19;;;;;;;5.07;1.73;;;;;;;;;;5113340;28;20485;-71
2022/06/29 07:49:45;;;;;;;4.97;1.90;;;;;;;;;;5112922;28;20069;-72
2022/06/29 07:52:11;;;;;;;5.85;1.60;;;;;;;;;;5116547;28;20048;-73
2022/06/29 07:54:37;;;;;;;5.07;1.52;;;;;;;;;;5116069;28;20071;-72
2022/06/29 07:57:03;;;;;;;8.40;1.70;;;;;;;;;;5114008;28;20048;-73
2022/06/29 07:59:29;;;;;;;4.68;1.60;;;;;;;;;;5097747;28;20043;-73
2022/06/29 08:01:55;;;;;;;4.18;1.40;;;;;;;;;;5114343;28;20501;-73
2022/06/29 08:04:21;;;;;;;5.13;1.50;;;;;;;;;;5112156;28;20081;-71
2022/06/29 08:06:47;;;;;;;4.38;1.65;;;;;;;;;;5115311;27;20196;-71
2022/06/29 08:09:13;;;;;;;4.35;1.50;;;;;;;;;;5110036;28;20032;-72
2022/06/29 08:11:39;;;;;;;4.47;1.50;;;;;;;;;;5115270;28;20036;-71
2022/06/29 08:14:05;;;;;;;4.25;1.63;;;;;;;;;;5115742;28;20500;-72
2022/06/29 08:16:31;;;;;;;3.78;1.30;;;;;;;;;;5115840;28;20040;-73
2022/06/29 08:18:57;;;;;;;4.75;1.40;;;;;;;;;;5115241;28;20050;-70
2022/06/29 08:21:23;;;;;;;4.05;1.70;;;;;;;;;;5115728;28;20556;-70
2022/06/29 08:23:49;;;;;;;5.85;1.55;;;;;;;;;;5115793;28;20043;-71
2022/06/29 08:26:16;;;;;;;5.43;1.70;;;;;;;;;;5115953;28;20134;-71
2022/06/29 08:28:42;;;;;;;6.00;1.30;;;;;;;;;;5115774;28;20405;-72
2022/06/29 08:31:08;;;;;;;4.88;1.52;;;;;;;;;;5115656;28;20047;-71
2022/06/29 08:33:34;;;;;;;3.55;1.60;;;;;;;;;;5115309;28;20048;-72
2022/06/29 08:36:00;;;;;;;5.93;1.60;;;;;;;;;;5107497;28;20110;-71
2022/06/29 08:38:26;;;;;;;3.92;1.52;;;;;;;;;;5095470;28;20036;-70
2022/06/29 08:40:52;;;;;;;6.53;1.67;;;;;;;;;;5094956;28;20044;-72
2022/06/29 08:43:20;;;;;;;4.63;1.75;;;;;;;;;;5100373;28;20036;-71
2022/06/29 08:45:48;;;;;;;3.60;1.50;;;;;;;;;;5115468;28;20058;-70
2022/06/29 08:48:14;;;;;;;4.88;1.45;;;;;;;;;;5114655;28;20059;-70
2022/06/29 08:50:42;;;;;;;4.63;1.42;;;;;;;;;;5114772;28;20105;-72
2022/06/29 08:53:08;;;;;;;5.72;1.48;;;;;;;;;;5115090;28;20035;-71
2022/06/29 08:55:38;;;;;;;4.72;1.70;;;;;;;;;;5108011;27;20054;-71
2022/06/29 08:58:06;;;;;;;3.63;1.48;;;;;;;;;;5114474;28;20048;-71
2022/06/29 09:00:32;;;;;;;4.35;1.40;;;;;;;;;;5113962;28;20039;-72
2022/06/29 09:02:58;;;;;;;4.88;1.58;;;;;;;;;;5096651;28;20478;-71
2022/06/29 09:05:24;;;;;;;5.28;1.70;;;;;;;;;;5114020;28;20397;-71
2022/06/29 09:07:50;;;;;;;3.90;1.60;;;;;;;;;;5096412;28;20391;-72
2022/06/29 09:10:21;;;;;;;4.60;1.83;;;;;;;;;;5096844;28;20066;-71
2022/06/29 09:12:47;;;;;;;;;;;;;;;;;;5126634;27;20043;-71
2022/06/29 09:15:13;;;;;;;4.10;1.45;;;;;;;;;;5116119;27;20009;-71
2022/06/29 09:17:39;;;;;;;5.65;1.60;;;;;;;;;;5117090;27;20047;-71
2022/06/29 09:20:06;;;;;;;3.85;1.70;;;;;;;;;;5120332;27;20036;-71
2022/06/29 09:22:32;;;;;;;3.58;1.50;;;;;;;;;;5095766;28;20042;-71
2022/06/29 09:24:58;;;;;;;5.95;1.70;;;;;;;;;;5113326;28;20048;-71
2022/06/29 09:27:25;;;;;;;3.85;1.63;;;;;;;;;;5113849;28;20054;-71
2022/06/29 09:29:51;;;;;;;6.10;1.75;;;;;;;;;;5114363;28;20055;-71
2022/06/29 09:32:18;;;;;;;5.70;1.77;;;;;;;;;;5114514;28;20082;-71
2022/06/29 09:34:48;;;;;;;5.85;1.98;;;;;;;;;;5112213;28;20036;-71
2022/06/29 09:37:16;;;;;;;5.55;1.70;;;;;;;;;;5112859;28;20043;-71
2022/06/29 09:39:46;;;;;;;4.40;2.05;;;;;;;;;;5112645;28;20112;-72
2022/06/29 09:42:12;;;;;;;4.47;1.60;;;;;;;;;;5113847;27;20118;-71
2022/06/29 09:44:38;;;;;;;4.13;1.98;;;;;;;;;;5113216;28;20087;-70
2022/06/29 09:47:06;;;;;;;4.30;1.88;;;;;;;;;;5113705;28;20100;-71
2022/06/29 09:49:33;;;;;;;4.90;1.95;;;;;;;;;;5111745;28;20057;-72
2022/06/29 09:52:00;;;;;;;5.38;1.80;;;;;;;;;;5077638;28;20123;-69
2022/06/29 09:54:31;;;;;;;3.92;1.75;;;;;;;;;;5112510;28;20039;-71
2022/06/29 09:56:58;;;;;;;4.75;2.10;;;;;;;;;;5114044;28;20055;-70
2022/06/29 10:05:06;;;;;;;5.65;2.00;;;;;;;;;;5113620;28;20055;-70
2022/06/29 10:07:33;;;;;;;5.22;1.77;;;;;;;;;;5132482;27;20099;-70
2022/06/29 10:10:00;;;;;;;5.38;1.80;;;;;;;;;;5134502;27;20122;-71
2022/06/29 10:15:29;;;;;;;5.20;1.85;;;;;;;;;;5134144;27;21093;-71
2022/06/29 10:18:14;;;;;;;4.05;1.63;;;;;;;;;;5134399;27;20043;-71
2022/06/29 10:20:47;;;;;;;5.43;2.10;;;;;;;;;;5115158;27;20054;-71
2022/06/29 10:23:32;;;;;;;4.75;1.80;;;;;;;;;;5113557;28;20447;-72
2022/06/29 10:25:58;;;;;;;3.17;1.52;;;;;;;;;;5113345;28;20375;-71
2022/06/29 10:28:24;;;;;;;4.93;1.70;;;;;;;;;;5113507;28;20095;-71
2022/06/29 10:30:53;;;;;;;6.25;1.80;;;;;;;;;;5113502;28;20127;-71
2022/06/29 10:33:36;;;;;;;4.60;1.90;;;;;;;;;;5113137;28;20509;-71
2022/06/29 10:36:05;;;;;;;5.47;1.70;;;;;;;;;;5112753;28;20444;-72
2022/06/29 10:38:31;;;;;;;7.22;1.90;;;;;;;;;;5113021;28;20494;-71
2022/06/29 10:43:55;;;;;;;6.82;1.90;;;;;;;;;;5113229;28;20060;-71
2022/06/29 10:46:22;;;;;;;4.10;1.95;;;;;;;;;;5113058;28;20056;-70
2022/06/29 10:49:07;;;;;;;4.28;1.70;;;;;;;;;;5112730;28;20051;-70
2022/06/29 10:51:33;;;;;;;5.28;1.70;;;;;;;;;;5127575;28;20061;-70
2022/06/29 10:53:59;;;;;;;3.35;1.60;;;;;;;;;;5122459;28;20508;-71
2022/06/29 10:56:25;;;;;;;4.57;1.73;;;;;;;;;;5112957;28;20066;-71
2022/06/29 10:58:53;;;;;;;4.10;1.88;;;;;;;;;;5132147;27;20092;-71
2022/06/29 11:01:20;;;;;;;3.85;2.15;;;;;;;;;;5136604;27;20050;-71
2022/06/29 11:03:46;;;;;;;5.32;2.00;;;;;;;;;;5137986;27;20082;-74
2022/06/29 11:12:01;;;;;;;4.65;2.17;;;;;;;;;;5118222;27;20052;-71
2022/06/29 11:17:39;;;;;;;5.32;2.67;;;;;;;;;;5096695;28;20044;-70
2022/06/29 11:19:58;;;;;;;5.25;2.90;;;;;;;;;;5096328;28;20498;-71
2022/06/29 11:22:24;;;;;;;4.50;2.55;;;;;;;;;;5096706;28;20044;-71
2022/06/29 11:24:52;;;;;;;6.50;2.40;;;;;;;;;;5093678;28;20047;-71
2022/06/29 11:27:34;;;;;;;7.70;3.03;;;;;;;;;;5132069;27;20088;-72
2022/06/29 11:30:01;;;;;;;6.20;3.00;;;;;;;;;;5137367;27;20107;-72
2022/06/29 11:32:34;;;;;;;6.45;3.00;;;;;;;;;;5137175;27;20035;-72
2022/06/29 11:35:00;;;;;;;5.75;3.05;;;;;;;;;;5137074;27;20043;-71
2022/06/29 11:37:26;;;;;;;5.13;3.05;;;;;;;;;;5137406;27;20035;-71
2022/06/29 11:39:52;;;;;;;6.90;3.40;;;;;;;;;;5134985;27;20050;-71
2022/06/29 11:45:07;;;;;;;6.22;2.72;;;;;;;;;;5116508;27;20130;-71
2022/06/29 11:47:33;;;;;;;5.97;2.85;;;;;;;;;;5097990;28;20100;-71
2022/06/29 11:50:11;;;;;;;5.78;3.28;;;;;;;;;;5115997;28;20494;-71
2022/06/29 11:52:38;;;;;;;5.28;3.08;;;;;;;;;;5116259;28;20032;-70
2022/06/29 11:55:04;;;;;;;6.50;3.22;;;;;;;;;;5080847;28;20051;-71
2022/06/29 11:57:30;;;;;;;5.68;3.10;;;;;;;;;;5116283;28;20405;-71
2022/06/29 12:00:06;;;;;;;5.78;3.35;;;;;;;;;;5116048;28;20425;-71
2022/06/29 12:02:35;;;;;;;6.30;3.03;;;;;;;;;;5096216;28;20043;-71
2022/06/29 12:05:01;;;;;;;7.60;3.25;;;;;;;;;;5116025;28;20122;-71
2022/06/29 12:07:29;;;;;;;6.95;3.00;;;;;;;;;;5115950;28;20044;-71
2022/06/29 12:09:55;;;;;;;8.52;3.25;;;;;;;;;;5132105;27;20513;-72
2022/06/29 12:12:21;;;;;;;7.13;3.17;;;;;;;;;;5136039;27;20125;-71
2022/06/29 12:14:48;;;;;;;5.70;3.20;;;;;;;;;;5136568;27;20051;-72
2022/06/29 12:17:15;;;;;;;7.53;3.20;;;;;;;;;;5136498;27;20074;-71
2022/06/29 12:19:42;;;;;;;6.88;3.22;;;;;;;;;;5136395;27;20447;-72
2022/06/29 12:22:08;;;;;;;6.18;3.20;;;;;;;;;;5136238;27;20401;-71
2022/06/29 12:24:34;;;;;;;5.80;3.22;;;;;;;;;;5118885;27;20047;-71
2022/06/29 12:27:01;;;;;;;5.65;3.33;;;;;;;;;;5115809;28;20108;-71
2022/06/29 12:29:27;;;;;;;6.07;3.00;;;;;;;;;;5115807;28;20047;-71
2022/06/29 12:31:53;;;;;;;8.15;3.45;;;;;;;;;;5115785;28;20405;-71
2022/06/29 12:34:19;;;;;;;6.32;3.25;;;;;;;;;;5113068;28;20563;-71
2022/06/29 12:36:46;;;;;;;8.00;3.47;;;;;;;;;;5114210;28;20545;-72
2022/06/29 12:39:12;;;;;;;6.70;3.53;;;;;;;;;;5114190;28;20044;-72
2022/06/29 12:41:38;;;;;;;8.02;3.50;;;;;;;;;;5115565;28;20048;-72
2022/06/29 12:44:04;;;;;;;6.28;3.40;;;;;;;;;;5113707;28;20562;-71
2022/06/29 12:46:31;;;;;;;8.30;3.55;;;;;;;;;;5115291;28;20096;-72
2022/06/29 12:48:58;;;;;;;8.10;3.42;;;;;;;;;;5115192;28;20064;-72
2022/06/29 12:51:25;;;;;;;7.38;3.92;;;;;;;;;;5121794;27;20114;-72
2022/06/29 12:53:52;;;;;;;5.20;3.42;;;;;;;;;;5117171;27;20118;-73
2022/06/29 12:56:18;;;;;;;5.28;3.30;;;;;;;;;;5117251;27;20431;-72
2022/06/29 12:58:44;;;;;;;5.85;3.75;;;;;;;;;;5135711;27;20055;-72
2022/06/29 13:01:10;;;;;;;8.85;3.30;;;;;;;;;;5135702;27;20046;-72
2022/06/29 13:03:36;;;;;;;6.18;3.63;;;;;;;;;;5135908;27;20047;-72
2022/06/29 13:06:02;;;;;;;5.68;3.42;;;;;;;;;;5126337;27;20040;-72
2022/06/29 13:08:29;;;;;;;6.13;3.63;;;;;;;;;;5114374;27;20055;-71
2022/06/29 13:10:55;;;;;;;7.15;3.60;;;;;;;;;;5135474;27;20039;-71
2022/06/29 13:13:22;;;;;;;5.45;3.20;;;;;;;;;;5135286;27;20056;-71
2022/06/29 13:15:48;;;;;;;6.50;3.67;;;;;;;;;;5135249;27;20477;-71
2022/06/29 13:18:15;;;;;;;6.25;3.53;;;;;;;;;;5134898;27;20553;-72
2022/06/29 13:20:41;;;;;;;8.27;3.70;;;;;;;;;;5133146;27;20051;-72
2022/06/29 13:23:08;;;;;;;5.90;3.50;;;;;;;;;;5115794;27;20043;-72
2022/06/29 13:25:34;;;;;;;5.68;3.25;;;;;;;;;;5135130;27;20054;-71
2022/06/29 13:28:00;;;;;;;7.38;3.40;;;;;;;;;;5135112;27;20047;-73
2022/06/29 13:30:26;;;;;;;6.97;3.40;;;;;;;;;;5135085;27;20047;-72
2022/06/29 13:32:52;;;;;;;6.75;3.80;;;;;;;;;;5091798;28;20035;-72
2022/06/29 13:35:19;;;;;;;6.68;3.50;;;;;;;;;;5091093;28;20070;-71
2022/06/29 13:37:45;;;;;;;5.80;3.70;;;;;;;;;;5093903;28;20056;-72
2022/06/29 13:40:11;;;;;;;8.73;3.55;;;;;;;;;;5075932;28;20048;-72
2022/06/29 13:42:37;;;;;;;7.80;3.47;;;;;;;;;;5075499;28;20036;-71
2022/06/29 13:45:03;;;;;;;7.68;3.83;;;;;;;;;;5093921;28;20043;-71
2022/06/29 13:47:30;;;;;;;6.35;3.67;;;;;;;;;;5093912;28;20071;-71
2022/06/29 13:49:56;;;;;;;6.90;3.78;;;;;;;;;;5097962;28;20059;-71
2022/06/29 13:52:22;;;;;;;8.15;3.90;;;;;;;;;;5114003;28;20530;-73
2022/06/29 13:54:48;;;;;;;5.40;3.50;;;;;;;;;;5095913;28;20040;-72
2022/06/29 13:57:15;;;;;;;7.85;3.92;;;;;;;;;;5114038;28;20088;-71
2022/06/29 13:59:41;;;;;;;6.22;3.80;;;;;;;;;;5113859;28;20200;-72
2022/06/29 14:02:08;;;;;;;7.60;3.70;;;;;;;;;;5095645;28;20398;-72
2022/06/29 14:04:34;;;;;;;7.10;4.00;;;;;;;;;;5094574;28;20132;-72
2022/06/29 14:07:00;;;;;;;6.22;3.90;;;;;;;;;;5110458;28;20039;-73
2022/06/29 14:09:26;;;;;;;5.47;3.72;;;;;;;;;;5113653;28;20485;-72
2022/06/29 14:11:53;;;;;;;8.43;3.75;;;;;;;;;;5111626;28;20047;-72
2022/06/29 14:14:19;;;;;;;5.80;3.85;;;;;;;;;;5113014;28;20048;-72
2022/06/29 14:16:45;;;;;;;7.20;4.00;;;;;;;;;;5111824;28;20051;-72
2022/06/29 14:19:11;;;;;;;7.15;4.00;;;;;;;;;;5111288;28;20047;-71
2022/06/29 14:21:37;;;;;;;6.07;3.92;;;;;;;;;;5111880;28;20097;-71
2022/06/29 14:24:03;;;;;;;5.53;3.65;;;;;;;;;;5112831;28;20044;-71
2022/06/29 14:26:29;;;;;;;5.63;3.80;;;;;;;;;;5091694;28;20553;-70
2022/06/29 14:28:55;;;;;;;9.13;3.85;;;;;;;;;;5112076;28;20035;-71
2022/06/29 14:31:22;;;;;;;6.95;4.00;;;;;;;;;;5095426;28;20097;-71
2022/06/29 14:33:49;;;;;;;6.88;3.80;;;;;;;;;;5110985;28;20050;-71
2022/06/29 14:36:15;;;;;;;7.90;3.90;;;;;;;;;;5094166;28;20052;-71
2022/06/29 14:38:41;;;;;;;5.50;3.80;;;;;;;;;;5110697;28;20039;-72
2022/06/29 14:41:08;;;;;;;7.05;3.70;;;;;;;;;;5112065;28;20043;-72
2022/06/29 14:43:35;;;;;;;6.93;4.13;;;;;;;;;;5111767;28;20047;-71
2022/06/29 14:46:01;;;;;;;7.32;3.92;;;;;;;;;;5113235;28;20044;-71
2022/06/29 14:48:27;;;;;;;7.38;3.95;;;;;;;;;;5117809;28;20047;-71
2022/06/29 14:50:54;;;;;;;7.30;4.13;;;;;;;;;;5114369;28;20402;-71
2022/06/29 14:53:21;;;;;;;8.13;3.83;;;;;;;;;;5105420;28;20052;-71
2022/06/29 14:55:47;;;;;;;5.53;4.00;;;;;;;;;;5110805;28;20047;-71
2022/06/29 14:58:13;;;;;;;6.80;3.95;;;;;;;;;;5093663;28;20075;-72
2022/06/29 15:00:39;;;;;;;6.32;4.38;;;;;;;;;;5113278;28;20044;-71
2022/06/29 15:03:07;;;;;;;9.15;3.95;;;;;;;;;;5111372;28;20485;-71